Time;durP1;ratioP1;P1;durP2;ratioP2;P2;SDS_P1;SDS_P2;PMS_P1;PMS_P2;Temp;Humidity;BMP_temperature;BMP_pressure;BME280_temperature;BME280_humidity;BME280_pressure;Samples;Min_cycle;Max_cycle;Signal;HPM_P1;HPM_P2
2023/10/25 00:00:35;;;;;;;10.95;3.50;;;;;;;;;;6284105;22;20729;-40
2023/10/25 00:03:03;;;;;;;11.00;2.90;;;;;;;;;;6303692;22;20025;-40
2023/10/25 00:05:31;;;;;;;9.82;3.08;;;;;;;;;;6289348;22;20524;-40
2023/10/25 00:07:59;;;;;;;8.50;2.97;;;;;;;;;;6297845;22;20420;-40
2023/10/25 00:10:27;;;;;;;8.85;2.78;;;;;;;;;;6291237;22;20247;-40
2023/10/25 00:12:54;;;;;;;11.05;3.15;;;;;;;;;;6304999;22;20021;-40
2023/10/25 00:15:22;;;;;;;11.53;2.97;;;;;;;;;;6295806;22;20400;-40
2023/10/25 00:17:51;;;;;;;8.48;3.42;;;;;;;;;;6299672;22;20022;-40
2023/10/25 00:20:19;;;;;;;11.02;3.10;;;;;;;;;;6299844;22;20018;-39
2023/10/25 00:22:48;;;;;;;8.77;3.70;;;;;;;;;;6291468;22;20015;-40
2023/10/25 00:25:16;;;;;;;10.27;3.20;;;;;;;;;;6304519;22;20015;-40
2023/10/25 00:27:43;;;;;;;12.17;3.30;;;;;;;;;;6292551;22;20034;-39
2023/10/25 00:30:12;;;;;;;9.80;3.42;;;;;;;;;;6302985;22;20102;-40
2023/10/25 00:32:42;;;;;;;11.60;3.50;;;;;;;;;;6301411;22;20015;-41
2023/10/25 00:35:11;;;;;;;10.15;3.30;;;;;;;;;;6277768;22;20106;-40
2023/10/25 00:37:39;;;;;;;9.70;3.33;;;;;;;;;;6297571;22;20011;-40
2023/10/25 00:40:07;;;;;;;9.30;3.20;;;;;;;;;;6309577;22;20022;-40
2023/10/25 00:42:35;;;;;;;11.65;3.15;;;;;;;;;;6287692;22;20022;-41
2023/10/25 00:45:03;;;;;;;9.10;3.40;;;;;;;;;;6304420;22;20010;-40
2023/10/25 00:47:31;;;;;;;10.55;3.05;;;;;;;;;;6268285;22;20389;-41
2023/10/25 00:49:59;;;;;;;9.55;3.25;;;;;;;;;;6301230;22;20042;-40
2023/10/25 00:52:31;;;;;;;11.97;3.67;;;;;;;;;;6298620;22;20021;-40
2023/10/25 00:54:59;;;;;;;12.38;3.78;;;;;;;;;;6276210;22;20046;-41
2023/10/25 00:57:27;;;;;;;11.68;3.65;;;;;;;;;;6296241;22;20015;-41
2023/10/25 00:59:54;;;;;;;12.40;4.55;;;;;;;;;;6305098;22;20018;-39
2023/10/25 01:02:22;;;;;;;10.82;4.18;;;;;;;;;;6301343;22;20015;-40
2023/10/25 01:04:50;;;;;;;11.97;4.00;;;;;;;;;;6301492;22;20011;-39
2023/10/25 01:07:17;;;;;;;10.02;3.88;;;;;;;;;;6290341;22;20022;-40
2023/10/25 01:09:47;;;;;;;11.00;3.88;;;;;;;;;;6304388;22;20072;-41
2023/10/25 01:12:15;;;;;;;11.38;4.00;;;;;;;;;;6295407;22;20015;-40
2023/10/25 01:14:42;;;;;;;10.75;3.80;;;;;;;;;;6307365;22;20015;-40
2023/10/25 01:17:10;;;;;;;10.17;3.70;;;;;;;;;;6298991;22;20411;-40
2023/10/25 01:19:38;;;;;;;12.38;4.05;;;;;;;;;;6298847;22;20025;-41
2023/10/25 01:22:06;;;;;;;12.75;4.07;;;;;;;;;;6299590;22;20039;-40
2023/10/25 01:24:35;;;;;;;9.60;4.10;;;;;;;;;;6298298;22;20014;-40
2023/10/25 01:27:03;;;;;;;12.00;4.22;;;;;;;;;;6312547;22;20019;-40
2023/10/25 01:29:31;;;;;;;11.30;4.23;;;;;;;;;;6285533;22;20464;-41
2023/10/25 01:31:58;;;;;;;17.02;4.28;;;;;;;;;;6306009;22;20135;-40
2023/10/25 01:34:30;;;;;;;9.20;3.83;;;;;;;;;;6282773;22;20026;-40
2023/10/25 01:36:58;;;;;;;12.60;4.45;;;;;;;;;;6306543;22;20034;-40
2023/10/25 01:39:26;;;;;;;14.20;3.97;;;;;;;;;;6295360;22;20499;-42
2023/10/25 01:41:55;;;;;;;11.67;4.17;;;;;;;;;;6297067;22;20018;-41
2023/10/25 01:44:22;;;;;;;11.20;3.75;;;;;;;;;;6242399;22;20346;-40
2023/10/25 01:46:50;;;;;;;9.82;3.80;;;;;;;;;;6306812;22;20271;-40
2023/10/25 01:49:18;;;;;;;11.63;3.80;;;;;;;;;;6310330;22;20015;-40
2023/10/25 01:51:45;;;;;;;11.43;3.90;;;;;;;;;;6300433;22;20030;-40
2023/10/25 01:54:13;;;;;;;12.90;4.10;;;;;;;;;;6303026;22;20610;-40
2023/10/25 01:56:41;;;;;;;10.27;3.65;;;;;;;;;;6297106;22;20319;-40
2023/10/25 01:59:10;;;;;;;12.73;5.35;;;;;;;;;;6309506;22;20118;-40
2023/10/25 02:01:39;;;;;;;13.18;5.28;;;;;;;;;;6288311;22;20251;-40
2023/10/25 02:04:08;;;;;;;12.27;4.65;;;;;;;;;;6311070;22;20025;-40
2023/10/25 02:06:36;;;;;;;12.53;5.33;;;;;;;;;;6301460;22;20011;-40
2023/10/25 02:09:04;;;;;;;13.35;5.75;;;;;;;;;;6263596;22;20025;-40
2023/10/25 02:11:32;;;;;;;14.30;6.20;;;;;;;;;;6314907;22;20037;-40
2023/10/25 02:14:00;;;;;;;16.85;5.88;;;;;;;;;;6286163;22;20014;-40
2023/10/25 02:16:29;;;;;;;15.38;6.68;;;;;;;;;;6272389;22;20369;-40
2023/10/25 02:18:57;;;;;;;16.80;6.47;;;;;;;;;;6309059;22;20010;-40
2023/10/25 02:21:25;;;;;;;17.95;6.40;;;;;;;;;;6301279;22;20491;-40
2023/10/25 02:23:54;;;;;;;14.10;6.95;;;;;;;;;;6306771;22;20021;-40
2023/10/25 02:26:21;;;;;;;14.55;5.88;;;;;;;;;;6307637;22;20019;-40
2023/10/25 02:28:53;;;;;;;14.60;6.72;;;;;;;;;;6313884;22;20046;-40
2023/10/25 02:31:22;;;;;;;14.27;6.57;;;;;;;;;;6310503;22;20358;-41
2023/10/25 02:33:51;;;;;;;16.48;6.97;;;;;;;;;;6302757;22;20029;-40
2023/10/25 02:36:18;;;;;;;20.30;6.78;;;;;;;;;;6319427;22;20019;-40
2023/10/25 02:38:48;;;;;;;20.80;7.10;;;;;;;;;;6286093;22;20015;-40
2023/10/25 02:41:16;;;;;;;18.45;7.03;;;;;;;;;;6315311;22;20023;-40
2023/10/25 02:43:43;;;;;;;16.70;7.10;;;;;;;;;;6297192;22;20063;-40
2023/10/25 02:46:12;;;;;;;16.38;6.82;;;;;;;;;;6299040;22;20029;-40
2023/10/25 02:48:40;;;;;;;17.63;6.82;;;;;;;;;;6316868;22;20014;-40
2023/10/25 02:51:09;;;;;;;17.20;6.38;;;;;;;;;;6301811;22;20021;-40
2023/10/25 02:53:37;;;;;;;15.73;7.10;;;;;;;;;;6307199;22;20015;-40
2023/10/25 02:56:06;;;;;;;17.10;6.00;;;;;;;;;;6298854;22;20446;-41
2023/10/25 02:58:34;;;;;;;13.80;5.60;;;;;;;;;;6306775;22;20025;-40
2023/10/25 03:01:02;;;;;;;14.15;5.63;;;;;;;;;;6298408;22;20572;-40
2023/10/25 03:03:30;;;;;;;16.92;6.35;;;;;;;;;;6314754;22;20014;-40
2023/10/25 03:05:58;;;;;;;19.48;6.38;;;;;;;;;;6292537;22;20064;-40
2023/10/25 03:08:27;;;;;;;13.87;5.33;;;;;;;;;;6305491;22;20025;-40
2023/10/25 03:10:55;;;;;;;12.27;5.57;;;;;;;;;;6302150;22;20015;-40
2023/10/25 03:13:23;;;;;;;13.95;4.95;;;;;;;;;;6303901;22;20056;-40
2023/10/25 03:15:53;;;;;;;11.55;4.65;;;;;;;;;;6304769;22;20025;-41
2023/10/25 03:18:21;;;;;;;12.18;4.68;;;;;;;;;;6311642;22;20019;-40
2023/10/25 03:20:49;;;;;;;12.00;3.83;;;;;;;;;;6312401;22;20023;-40
2023/10/25 03:23:16;;;;;;;11.60;4.25;;;;;;;;;;6301123;22;20458;-40
2023/10/25 03:25:45;;;;;;;12.23;4.75;;;;;;;;;;6309233;22;20014;-40
2023/10/25 03:28:13;;;;;;;17.38;4.03;;;;;;;;;;6301934;22;20445;-40
2023/10/25 03:30:41;;;;;;;13.15;4.28;;;;;;;;;;6315443;22;20601;-39
2023/10/25 03:33:08;;;;;;;12.97;4.03;;;;;;;;;;6293077;22;20513;-40
2023/10/25 03:35:36;;;;;;;13.18;4.47;;;;;;;;;;6274202;22;20178;-40
2023/10/25 03:38:04;;;;;;;10.98;4.50;;;;;;;;;;6310175;22;20011;-40
2023/10/25 03:40:31;;;;;;;12.27;3.88;;;;;;;;;;6301385;22;20063;-41
2023/10/25 03:43:00;;;;;;;12.82;4.93;;;;;;;;;;6299883;22;20350;-40
2023/10/25 03:45:29;;;;;;;12.47;5.07;;;;;;;;;;6274672;22;20015;-40
2023/10/25 03:47:57;;;;;;;12.75;4.68;;;;;;;;;;6309746;22;20014;-40
2023/10/25 03:50:25;;;;;;;14.82;4.80;;;;;;;;;;6311656;22;20039;-40
2023/10/25 03:52:53;;;;;;;10.95;4.55;;;;;;;;;;6274817;22;20011;-40
2023/10/25 03:55:21;;;;;;;13.82;4.88;;;;;;;;;;6310490;22;20014;-40
2023/10/25 03:57:49;;;;;;;11.93;5.27;;;;;;;;;;6285522;22;20019;-40
2023/10/25 04:00:19;;;;;;;15.23;5.05;;;;;;;;;;6304349;22;20654;-41
2023/10/25 04:02:46;;;;;;;11.75;5.35;;;;;;;;;;6306929;22;20488;-40
2023/10/25 04:05:16;;;;;;;12.60;5.30;;;;;;;;;;6300467;22;20094;-39
2023/10/25 04:07:43;;;;;;;14.82;5.25;;;;;;;;;;6298005;22;20015;-40
2023/10/25 04:10:11;;;;;;;15.43;5.17;;;;;;;;;;6297009;22;20026;-40
2023/10/25 04:12:39;;;;;;;11.35;5.30;;;;;;;;;;6301323;22;20029;-40
2023/10/25 04:15:07;;;;;;;13.70;5.88;;;;;;;;;;6311208;22;20102;-41
2023/10/25 04:17:37;;;;;;;14.63;5.05;;;;;;;;;;6306772;22;20025;-40
2023/10/25 04:20:06;;;;;;;15.45;5.95;;;;;;;;;;6306946;22;20011;-40
2023/10/25 04:22:35;;;;;;;15.53;5.53;;;;;;;;;;6310640;22;20018;-40
2023/10/25 04:25:04;;;;;;;17.33;6.47;;;;;;;;;;6302253;22;20021;-40
2023/10/25 04:27:32;;;;;;;13.98;5.88;;;;;;;;;;6312208;22;20018;-40
2023/10/25 04:30:00;;;;;;;14.93;6.30;;;;;;;;;;6304111;22;20011;-40
2023/10/25 04:32:33;;;;;;;18.23;6.57;;;;;;;;;;6312228;22;20022;-41
2023/10/25 04:35:02;;;;;;;18.17;6.47;;;;;;;;;;6291491;22;20034;-39
2023/10/25 04:37:30;;;;;;;22.98;7.65;;;;;;;;;;6303677;22;20010;-39
2023/10/25 04:39:57;;;;;;;20.63;7.45;;;;;;;;;;6297456;22;20025;-42
2023/10/25 04:42:25;;;;;;;17.83;7.10;;;;;;;;;;6304083;22;20076;-40
2023/10/25 04:44:53;;;;;;;19.92;7.25;;;;;;;;;;6302890;22;20014;-40
2023/10/25 04:47:21;;;;;;;15.50;6.77;;;;;;;;;;6306885;22;20022;-40
2023/10/25 04:49:49;;;;;;;15.23;7.03;;;;;;;;;;6292051;22;20019;-40
2023/10/25 04:52:19;;;;;;;19.25;8.00;;;;;;;;;;6282201;22;20022;-40
2023/10/25 04:54:46;;;;;;;21.08;7.93;;;;;;;;;;6266022;22;20064;-44
2023/10/25 04:57:16;;;;;;;20.30;7.18;;;;;;;;;;6311883;22;20442;-40
2023/10/25 04:59:43;;;;;;;20.87;8.13;;;;;;;;;;6292233;22;20022;-41
2023/10/25 05:02:11;;;;;;;21.75;7.95;;;;;;;;;;6304551;22;20018;-42
2023/10/25 05:04:39;;;;;;;22.48;8.80;;;;;;;;;;6305853;22;20014;-40
2023/10/25 05:07:08;;;;;;;19.23;8.18;;;;;;;;;;6303257;22;20392;-39
2023/10/25 05:09:37;;;;;;;18.02;7.80;;;;;;;;;;6291554;22;20068;-41
2023/10/25 05:12:06;;;;;;;19.93;7.77;;;;;;;;;;6296363;22;20496;-40
2023/10/25 05:14:34;;;;;;;25.58;9.32;;;;;;;;;;6297453;22;20034;-40
2023/10/25 05:17:05;;;;;;;20.42;9.43;;;;;;;;;;6306713;22;20458;-40
2023/10/25 05:19:33;;;;;;;22.05;10.27;;;;;;;;;;6295581;22;20344;-41
2023/10/25 05:22:03;;;;;;;22.05;9.23;;;;;;;;;;6312158;22;20122;-42
2023/10/25 05:24:30;;;;;;;25.47;9.63;;;;;;;;;;6297646;22;20015;-40
2023/10/25 05:27:00;;;;;;;26.08;9.75;;;;;;;;;;6300947;22;20117;-40
2023/10/25 05:29:28;;;;;;;25.58;9.32;;;;;;;;;;6303853;22;20015;-40
2023/10/25 05:31:56;;;;;;;21.38;8.68;;;;;;;;;;6289895;22;20017;-40
2023/10/25 05:34:26;;;;;;;22.77;8.23;;;;;;;;;;6297603;22;20064;-41
2023/10/25 05:36:54;;;;;;;22.67;9.20;;;;;;;;;;6271081;22;20025;-42
2023/10/25 05:39:22;;;;;;;25.95;7.82;;;;;;;;;;6311639;22;20629;-40
2023/10/25 05:41:54;;;;;;;21.85;9.43;;;;;;;;;;6294256;22;20018;-40
2023/10/25 05:44:26;;;;;;;21.55;8.02;;;;;;;;;;6314501;22;20015;-40
2023/10/25 05:46:53;;;;;;;21.83;8.95;;;;;;;;;;6295994;22;20504;-40
2023/10/25 05:49:29;;;;;;;27.83;9.13;;;;;;;;;;6312238;22;20740;-40
2023/10/25 05:51:57;;;;;;;28.65;10.02;;;;;;;;;;6307880;22;20022;-40
2023/10/25 05:54:25;;;;;;;29.83;9.45;;;;;;;;;;6261290;22;20017;-41
2023/10/25 05:56:52;;;;;;;27.42;9.73;;;;;;;;;;6292805;22;20034;-40
2023/10/25 05:59:21;;;;;;;27.40;9.25;;;;;;;;;;6275393;22;20011;-39
2023/10/25 06:01:50;;;;;;;27.83;9.77;;;;;;;;;;6307312;22;20030;-40
2023/10/25 06:04:19;;;;;;;24.60;10.05;;;;;;;;;;6302481;22;20027;-41
2023/10/25 06:06:52;;;;;;;28.17;10.60;;;;;;;;;;6271937;22;20011;-40
2023/10/25 06:09:20;;;;;;;31.45;11.95;;;;;;;;;;6305389;22;20076;-40
2023/10/25 06:11:49;;;;;;;30.40;11.85;;;;;;;;;;6299471;22;20122;-41
2023/10/25 06:14:17;;;;;;;37.73;12.50;;;;;;;;;;6307062;22;20049;-40
2023/10/25 06:16:44;;;;;;;37.35;12.88;;;;;;;;;;6284244;22;20505;-40
2023/10/25 06:19:14;;;;;;;34.70;13.77;;;;;;;;;;6308790;22;20770;-39
2023/10/25 06:21:42;;;;;;;37.40;13.55;;;;;;;;;;6272465;22;20033;-39
2023/10/25 06:24:09;;;;;;;39.45;12.88;;;;;;;;;;6296694;22;20022;-40
2023/10/25 06:26:37;;;;;;;38.47;14.70;;;;;;;;;;6289200;22;20332;-40
2023/10/25 06:29:09;;;;;;;43.90;14.65;;;;;;;;;;6309195;22;20739;-40
2023/10/25 06:31:37;;;;;;;47.30;15.05;;;;;;;;;;6298117;22;20022;-40
2023/10/25 06:34:10;;;;;;;44.30;15.43;;;;;;;;;;6305578;22;20019;-40
2023/10/25 06:36:40;;;;;;;48.25;16.20;;;;;;;;;;6288316;22;20433;-40
2023/10/25 06:39:08;;;;;;;53.37;17.17;;;;;;;;;;6297510;22;20338;-39
2023/10/25 06:41:36;;;;;;;54.42;18.88;;;;;;;;;;6265507;22;20421;-39
2023/10/25 06:44:04;;;;;;;58.35;18.90;;;;;;;;;;6293815;22;20015;-40
2023/10/25 06:46:32;;;;;;;60.72;19.88;;;;;;;;;;6283855;22;20018;-42
2023/10/25 06:49:00;;;;;;;65.00;20.20;;;;;;;;;;6298766;22;20046;-40
2023/10/25 06:51:29;;;;;;;69.13;21.87;;;;;;;;;;6254186;22;20021;-39
2023/10/25 06:54:00;;;;;;;66.57;20.23;;;;;;;;;;6289691;22;20365;-41
2023/10/25 06:56:29;;;;;;;72.97;19.88;;;;;;;;;;6300734;22;20011;-40
2023/10/25 06:59:02;;;;;;;70.50;21.48;;;;;;;;;;6304420;22;20025;-41
2023/10/25 07:01:32;;;;;;;68.97;21.98;;;;;;;;;;6309573;22;20015;-40
2023/10/25 07:04:00;;;;;;;75.07;20.97;;;;;;;;;;6301785;22;20663;-40
2023/10/25 07:06:28;;;;;;;97.32;24.42;;;;;;;;;;6296071;22;20561;-40
2023/10/25 07:08:56;;;;;;;75.00;23.10;;;;;;;;;;6289557;22;20015;-40
2023/10/25 07:11:25;;;;;;;98.10;23.10;;;;;;;;;;6287836;22;20765;-41
2023/10/25 07:13:53;;;;;;;87.43;23.67;;;;;;;;;;6303622;22;20019;-40
2023/10/25 07:16:21;;;;;;;96.40;23.33;;;;;;;;;;6271958;22;20023;-39
2023/10/25 07:18:49;;;;;;;94.03;22.52;;;;;;;;;;6279702;22;20335;-41
2023/10/25 07:21:16;;;;;;;88.03;23.77;;;;;;;;;;6300731;22;20083;-40
2023/10/25 07:23:44;;;;;;;84.53;24.10;;;;;;;;;;6299562;22;20874;-39
2023/10/25 07:26:12;;;;;;;70.65;21.27;;;;;;;;;;6282821;22;20045;-40
2023/10/25 07:28:41;;;;;;;74.97;24.30;;;;;;;;;;6305939;22;20019;-40
2023/10/25 07:31:09;;;;;;;67.88;22.10;;;;;;;;;;6279567;22;20088;-40
2023/10/25 07:33:38;;;;;;;70.65;21.23;;;;;;;;;;6276173;22;20015;-40
2023/10/25 07:36:08;;;;;;;66.57;21.20;;;;;;;;;;6305105;22;20015;-40
2023/10/25 07:38:41;;;;;;;55.40;18.63;;;;;;;;;;6301609;22;20046;-40
2023/10/25 07:41:08;;;;;;;66.87;19.23;;;;;;;;;;6272808;22;20029;-40
2023/10/25 07:43:37;;;;;;;63.13;18.77;;;;;;;;;;6290902;22;20019;-42
2023/10/25 07:46:06;;;;;;;64.20;18.17;;;;;;;;;;6290859;22;20471;-40
2023/10/25 07:48:34;;;;;;;61.15;17.65;;;;;;;;;;6289094;22;20089;-40
2023/10/25 07:51:05;;;;;;;57.75;17.75;;;;;;;;;;6297914;22;20018;-42
2023/10/25 07:53:37;;;;;;;52.00;18.23;;;;;;;;;;6300289;22;20445;-40
2023/10/25 07:56:08;;;;;;;45.38;15.85;;;;;;;;;;6294429;22;20533;-41
2023/10/25 07:58:56;;;;;;;40.75;15.52;;;;;;;;;;6300825;22;20470;-42
2023/10/25 08:01:25;;;;;;;36.55;12.93;;;;;;;;;;6286631;22;20503;-40
2023/10/25 08:03:57;;;;;;;41.28;13.15;;;;;;;;;;6295960;22;20718;-39
2023/10/25 08:06:25;;;;;;;42.30;14.83;;;;;;;;;;6288266;22;20022;-40
2023/10/25 08:08:53;;;;;;;43.08;14.32;;;;;;;;;;6300765;22;20553;-39
2023/10/25 08:11:21;;;;;;;40.33;13.18;;;;;;;;;;6274931;22;20390;-40
2023/10/25 08:13:49;;;;;;;41.28;13.60;;;;;;;;;;6271899;22;20015;-40
2023/10/25 08:16:16;;;;;;;40.45;12.65;;;;;;;;;;6267507;22;20212;-39
2023/10/25 08:18:46;;;;;;;34.60;13.23;;;;;;;;;;6261236;22;20113;-40
2023/10/25 08:21:14;;;;;;;34.00;11.95;;;;;;;;;;6284445;22;20049;-40
2023/10/25 08:23:45;;;;;;;32.90;11.20;;;;;;;;;;6282428;22;20045;-40
2023/10/25 08:26:13;;;;;;;38.95;11.30;;;;;;;;;;6251227;22;20376;-40
2023/10/25 08:28:41;;;;;;;38.83;11.50;;;;;;;;;;6246318;22;20859;-40
2023/10/25 08:31:11;;;;;;;32.23;11.03;;;;;;;;;;6276757;22;20495;-40
2023/10/25 08:33:39;;;;;;;37.05;10.60;;;;;;;;;;6269750;22;20061;-39
2023/10/25 08:36:11;;;;;;;38.17;11.63;;;;;;;;;;6285744;22;20018;-41
2023/10/25 08:38:40;;;;;;;35.97;10.77;;;;;;;;;;6275177;22;20022;-40
2023/10/25 08:41:08;;;;;;;40.60;11.32;;;;;;;;;;6283548;22;20360;-40
2023/10/25 08:43:42;;;;;;;31.27;11.70;;;;;;;;;;6280003;22;20037;-39
2023/10/25 08:46:11;;;;;;;35.47;10.95;;;;;;;;;;6273339;22;20025;-40
2023/10/25 08:48:39;;;;;;;30.40;10.10;;;;;;;;;;6276791;22;20015;-40
2023/10/25 08:51:07;;;;;;;30.85;10.40;;;;;;;;;;6268747;22;20025;-40
2023/10/25 08:53:39;;;;;;;37.55;10.60;;;;;;;;;;6291095;22;20015;-42
2023/10/25 08:56:06;;;;;;;32.23;9.83;;;;;;;;;;6278671;22;20029;-41
2023/10/25 08:58:34;;;;;;;36.58;10.98;;;;;;;;;;6282839;22;20021;-40
2023/10/25 09:01:02;;;;;;;31.85;10.80;;;;;;;;;;6275374;22;20501;-40
2023/10/25 09:03:42;;;;;;;37.63;12.00;;;;;;;;;;6259533;22;20045;-43
2023/10/25 09:06:11;;;;;;;32.55;8.85;;;;;;;;;;6242276;22;20040;-40
2023/10/25 09:08:48;;;;;;;33.17;9.97;;;;;;;;;;6256730;22;20033;-43
2023/10/25 09:11:16;;;;;;;34.88;10.40;;;;;;;;;;6201965;22;20019;-40
2023/10/25 09:13:45;;;;;;;34.55;11.18;;;;;;;;;;6254120;22;20025;-41
2023/10/25 09:16:14;;;;;;;34.75;11.27;;;;;;;;;;6278014;22;20019;-40
2023/10/25 09:18:42;;;;;;;41.50;12.02;;;;;;;;;;6282346;22;20015;-41
2023/10/25 09:21:10;;;;;;;39.77;12.30;;;;;;;;;;6282861;22;20015;-40
2023/10/25 09:23:42;;;;;;;43.75;12.70;;;;;;;;;;6287581;22;20026;-40
2023/10/25 09:26:14;;;;;;;33.95;10.32;;;;;;;;;;6261592;22;20021;-40
2023/10/25 09:28:42;;;;;;;29.85;11.13;;;;;;;;;;6259400;22;20019;-39
2023/10/25 09:31:20;;;;;;;26.88;9.20;;;;;;;;;;6262531;22;20025;-40
2023/10/25 09:33:48;;;;;;;29.07;9.83;;;;;;;;;;6276310;22;20290;-39
2023/10/25 09:36:20;;;;;;;28.63;9.68;;;;;;;;;;6258036;22;20069;-39
2023/10/25 09:38:51;;;;;;;26.58;9.88;;;;;;;;;;6266358;22;20321;-40
2023/10/25 09:41:19;;;;;;;24.13;9.65;;;;;;;;;;6282346;22;20039;-41
2023/10/25 09:43:47;;;;;;;31.00;9.95;;;;;;;;;;6265579;22;20018;-39
2023/10/25 09:46:16;;;;;;;25.90;9.97;;;;;;;;;;6268051;22;20018;-43
2023/10/25 09:48:53;;;;;;;24.85;8.73;;;;;;;;;;6263505;22;20420;-40
2023/10/25 09:51:25;;;;;;;24.17;9.57;;;;;;;;;;6270379;22;20500;-40
2023/10/25 09:53:58;;;;;;;26.85;10.15;;;;;;;;;;6279201;22;20023;-40
2023/10/25 09:56:26;;;;;;;25.20;10.55;;;;;;;;;;6270953;22;20014;-40
2023/10/25 09:58:54;;;;;;;28.93;9.90;;;;;;;;;;6281696;22;20019;-40
2023/10/25 10:01:22;;;;;;;26.77;10.25;;;;;;;;;;6285820;22;20190;-40
2023/10/25 10:03:52;;;;;;;26.88;9.98;;;;;;;;;;6270192;22;20341;-40
2023/10/25 10:06:25;;;;;;;28.85;10.50;;;;;;;;;;6258035;22;20374;-40
2023/10/25 10:09:05;;;;;;;24.98;10.77;;;;;;;;;;6239521;22;20015;-40
2023/10/25 10:11:35;;;;;;;32.17;11.63;;;;;;;;;;6278184;22;20015;-40
2023/10/25 10:14:21;;;;;;;25.70;10.05;;;;;;;;;;6285022;22;20110;-40
2023/10/25 10:16:49;;;;;;;24.10;9.80;;;;;;;;;;6277556;22;20049;-40
2023/10/25 10:19:17;;;;;;;24.98;10.02;;;;;;;;;;6282818;22;20025;-40
2023/10/25 10:22:02;;;;;;;26.00;10.48;;;;;;;;;;6284651;22;20022;-41
2023/10/25 10:24:43;;;;;;;23.43;9.93;;;;;;;;;;6271513;22;20029;-40
2023/10/25 10:27:12;;;;;;;23.38;10.00;;;;;;;;;;6276902;22;20109;-40
2023/10/25 10:29:41;;;;;;;29.48;11.70;;;;;;;;;;6276470;22;20455;-40
2023/10/25 10:32:09;;;;;;;28.25;10.77;;;;;;;;;;6276774;22;20798;-40
2023/10/25 10:34:38;;;;;;;22.35;9.52;;;;;;;;;;6275239;22;20022;-39
2023/10/25 10:37:11;;;;;;;22.23;9.37;;;;;;;;;;6278826;22;20311;-40
2023/10/25 10:39:39;;;;;;;16.15;7.80;;;;;;;;;;6283328;22;20026;-40
2023/10/25 10:42:08;;;;;;;22.35;8.75;;;;;;;;;;6277827;22;20779;-40
2023/10/25 10:44:38;;;;;;;19.20;8.48;;;;;;;;;;6278549;22;20019;-39
2023/10/25 10:47:11;;;;;;;23.80;9.45;;;;;;;;;;6278049;22;20014;-40
2023/10/25 10:49:40;;;;;;;21.97;8.87;;;;;;;;;;6275050;22;20076;-40
2023/10/25 10:52:07;;;;;;;18.40;8.32;;;;;;;;;;6185582;22;20442;-42
2023/10/25 10:54:35;;;;;;;19.15;7.53;;;;;;;;;;6183281;23;20016;-43
2023/10/25 10:57:03;;;;;;;16.25;7.65;;;;;;;;;;6192622;23;20027;-44
2023/10/25 10:59:34;;;;;;;18.42;8.27;;;;;;;;;;6163683;22;20023;-43
2023/10/25 11:02:09;;;;;;;18.87;8.20;;;;;;;;;;6252196;22;20313;-41
2023/10/25 11:04:41;;;;;;;20.50;8.63;;;;;;;;;;6201672;22;20033;-43
2023/10/25 11:07:14;;;;;;;21.02;7.97;;;;;;;;;;6279625;22;20045;-43
2023/10/25 11:09:42;;;;;;;20.88;8.10;;;;;;;;;;6204503;22;20315;-42
2023/10/25 11:12:12;;;;;;;21.27;8.18;;;;;;;;;;6243184;22;20537;-44
2023/10/25 11:17:25;;;;;;;20.42;8.70;;;;;;;;;;6103159;22;20375;-40
2023/10/25 11:19:53;;;;;;;23.40;9.57;;;;;;;;;;6139080;23;20401;-40
2023/10/25 11:22:31;;;;;;;20.50;8.85;;;;;;;;;;6193578;23;20434;-39
2023/10/25 11:25:00;;;;;;;18.58;7.93;;;;;;;;;;6183160;23;20710;-40
2023/10/25 11:27:30;;;;;;;20.03;8.10;;;;;;;;;;6192359;23;20016;-41
2023/10/25 11:29:58;;;;;;;22.58;8.30;;;;;;;;;;6185982;23;20039;-40
2023/10/25 11:32:28;;;;;;;19.02;8.50;;;;;;;;;;6181958;23;20027;-40
2023/10/25 11:34:58;;;;;;;17.98;7.47;;;;;;;;;;6171697;23;20402;-39
2023/10/25 11:37:27;;;;;;;20.13;8.23;;;;;;;;;;6188500;23;20366;-40
2023/10/25 11:39:55;;;;;;;14.93;7.13;;;;;;;;;;6191182;23;20187;-39
2023/10/25 11:42:23;;;;;;;16.73;7.57;;;;;;;;;;6172840;23;20437;-40
2023/10/25 11:44:51;;;;;;;17.83;8.13;;;;;;;;;;6194264;23;20024;-39
2023/10/25 11:47:22;;;;;;;18.08;7.20;;;;;;;;;;6187115;23;20032;-40
2023/10/25 11:49:55;;;;;;;18.08;7.40;;;;;;;;;;6182806;23;20027;-40
2023/10/25 11:52:25;;;;;;;16.13;7.60;;;;;;;;;;6193737;23;20047;-40
2023/10/25 11:54:56;;;;;;;13.50;6.40;;;;;;;;;;6193226;23;20042;-40
2023/10/25 11:57:24;;;;;;;16.25;6.82;;;;;;;;;;6184438;23;20016;-39
2023/10/25 11:59:59;;;;;;;18.05;6.32;;;;;;;;;;6194419;22;20123;-40
2023/10/25 12:02:28;;;;;;;17.77;6.32;;;;;;;;;;6190447;23;20016;-41
2023/10/25 12:04:57;;;;;;;16.27;7.07;;;;;;;;;;6179551;23;20030;-40
2023/10/25 12:07:25;;;;;;;15.25;6.38;;;;;;;;;;6186399;22;20309;-41
2023/10/25 12:09:53;;;;;;;14.73;6.20;;;;;;;;;;6183562;23;20016;-40
2023/10/25 12:12:23;;;;;;;14.95;7.07;;;;;;;;;;6178194;23;20520;-41
2023/10/25 12:14:51;;;;;;;13.80;6.45;;;;;;;;;;6187335;22;20016;-40
2023/10/25 12:17:20;;;;;;;13.30;6.20;;;;;;;;;;6231218;22;20019;-40
2023/10/25 12:19:50;;;;;;;13.45;6.18;;;;;;;;;;6250030;22;20022;-41
2023/10/25 12:22:20;;;;;;;13.10;5.68;;;;;;;;;;6233392;22;20019;-39
2023/10/25 12:24:48;;;;;;;12.57;6.35;;;;;;;;;;6254068;22;20096;-39
2023/10/25 12:27:16;;;;;;;12.45;5.82;;;;;;;;;;6252699;22;20542;-41
2023/10/25 12:29:45;;;;;;;11.30;4.80;;;;;;;;;;6237226;22;20039;-40
2023/10/25 12:32:12;;;;;;;10.70;4.90;;;;;;;;;;6249836;22;20038;-41
2023/10/25 12:34:40;;;;;;;12.85;5.00;;;;;;;;;;6213719;22;20019;-40
2023/10/25 12:37:08;;;;;;;12.98;5.03;;;;;;;;;;6251859;22;20394;-40
2023/10/25 12:39:38;;;;;;;9.60;4.30;;;;;;;;;;6240182;22;20051;-40
2023/10/25 12:42:06;;;;;;;9.47;4.60;;;;;;;;;;6238842;22;20470;-40
2023/10/25 12:44:33;;;;;;;11.32;4.70;;;;;;;;;;6240929;22;20065;-40
2023/10/25 12:47:06;;;;;;;11.25;5.00;;;;;;;;;;6244019;22;20448;-42
2023/10/25 12:49:34;;;;;;;13.15;4.25;;;;;;;;;;6252832;22;20011;-40
2023/10/25 12:52:04;;;;;;;10.38;4.07;;;;;;;;;;6238232;22;20011;-40
2023/10/25 12:54:32;;;;;;;9.33;4.03;;;;;;;;;;6251953;22;20064;-42
2023/10/25 12:57:01;;;;;;;7.63;3.65;;;;;;;;;;6235921;22;20015;-40
2023/10/25 12:59:29;;;;;;;9.38;3.40;;;;;;;;;;6254143;22;20031;-40
2023/10/25 13:01:57;;;;;;;8.70;2.70;;;;;;;;;;6204803;22;20435;-40
2023/10/25 13:04:25;;;;;;;9.73;2.70;;;;;;;;;;6245627;22;20375;-39
2023/10/25 13:06:52;;;;;;;9.27;3.30;;;;;;;;;;6244061;22;20096;-40
2023/10/25 13:09:22;;;;;;;9.98;3.47;;;;;;;;;;6241137;22;20490;-39
2023/10/25 13:11:52;;;;;;;8.55;3.50;;;;;;;;;;6234925;22;20019;-39
2023/10/25 13:14:22;;;;;;;11.57;3.97;;;;;;;;;;6241736;22;20047;-39
2023/10/25 13:16:50;;;;;;;12.32;3.70;;;;;;;;;;6206878;22;20713;-39
2023/10/25 13:19:24;;;;;;;7.63;3.00;;;;;;;;;;6248136;22;20436;-41
2023/10/25 13:21:52;;;;;;;6.80;3.38;;;;;;;;;;6240214;22;20019;-40
2023/10/25 13:24:20;;;;;;;8.43;3.28;;;;;;;;;;6242381;22;20647;-40
2023/10/25 13:26:49;;;;;;;7.97;2.92;;;;;;;;;;6236024;22;20077;-39
2023/10/25 13:29:26;;;;;;;9.27;2.88;;;;;;;;;;6240365;22;20516;-41
2023/10/25 13:31:55;;;;;;;8.80;3.17;;;;;;;;;;6245063;22;20025;-40
2023/10/25 13:34:24;;;;;;;10.30;2.90;;;;;;;;;;6237126;22;20093;-41
2023/10/25 13:36:51;;;;;;;8.88;3.97;;;;;;;;;;6250263;22;20107;-40
2023/10/25 13:39:19;;;;;;;10.43;3.25;;;;;;;;;;6239338;22;20019;-40
2023/10/25 13:41:48;;;;;;;8.95;2.80;;;;;;;;;;6253518;22;20433;-40
2023/10/25 13:44:16;;;;;;;8.20;2.60;;;;;;;;;;6229954;22;20194;-40
2023/10/25 13:46:44;;;;;;;9.18;3.35;;;;;;;;;;6253339;22;20632;-39
2023/10/25 13:49:13;;;;;;;8.95;3.05;;;;;;;;;;6232159;22;20405;-40
2023/10/25 13:51:43;;;;;;;9.77;3.17;;;;;;;;;;6246021;22;20092;-39
2023/10/25 13:54:11;;;;;;;6.38;2.85;;;;;;;;;;6237555;22;20273;-41
2023/10/25 13:56:43;;;;;;;7.57;2.83;;;;;;;;;;6217642;22;20015;-40
2023/10/25 13:59:10;;;;;;;6.95;2.97;;;;;;;;;;6245112;22;20038;-40
2023/10/25 14:01:41;;;;;;;8.70;3.15;;;;;;;;;;6251769;22;20026;-39
2023/10/25 14:04:11;;;;;;;12.50;3.45;;;;;;;;;;6244269;22;20018;-40
2023/10/25 14:06:52;;;;;;;9.40;2.85;;;;;;;;;;6247028;22;20039;-39
2023/10/25 14:09:19;;;;;;;8.87;3.10;;;;;;;;;;6257170;22;20019;-40
2023/10/25 14:11:48;;;;;;;7.70;2.80;;;;;;;;;;6245445;22;20016;-40
2023/10/25 14:14:17;;;;;;;7.53;2.95;;;;;;;;;;6222624;22;20306;-39
2023/10/25 14:16:45;;;;;;;9.23;2.83;;;;;;;;;;6244046;22;20015;-40
2023/10/25 14:19:12;;;;;;;8.60;2.28;;;;;;;;;;6249546;22;20039;-41
2023/10/25 14:21:40;;;;;;;7.77;2.50;;;;;;;;;;6247104;22;20076;-40
2023/10/25 14:24:10;;;;;;;10.00;2.63;;;;;;;;;;6244837;22;20269;-39
2023/10/25 14:26:40;;;;;;;10.73;2.75;;;;;;;;;;6267215;22;20027;-42
2023/10/25 14:29:08;;;;;;;9.68;2.58;;;;;;;;;;6279151;22;20015;-40
2023/10/25 14:31:42;;;;;;;8.30;2.95;;;;;;;;;;6274682;22;20398;-40
2023/10/25 14:34:10;;;;;;;10.13;2.80;;;;;;;;;;6263648;22;20042;-39
2023/10/25 14:36:37;;;;;;;8.50;2.67;;;;;;;;;;6276704;22;20022;-40
2023/10/25 14:39:05;;;;;;;8.07;2.45;;;;;;;;;;6236459;22;20486;-42
2023/10/25 14:41:34;;;;;;;7.68;2.33;;;;;;;;;;6274947;22;20015;-40